sensor_id;sensor_type;location;lat;lon;timestamp;P1;durP1;ratioP1;P2;durP2;ratioP2
18649;SDS011;9454;53.516;10.478;2023-08-20T00:01:44;4.40;;;2.10;;
18649;SDS011;9454;53.516;10.478;2023-08-20T00:04:47;5.30;;;2.20;;
18649;SDS011;9454;53.516;10.478;2023-08-20T00:07:52;4.97;;;1.75;;
18649;SDS011;9454;53.516;10.478;2023-08-20T00:10:55;6.55;;;2.28;;
18649;SDS011;9454;53.516;10.478;2023-08-20T00:13:59;5.70;;;2.20;;
18649;SDS011;9454;53.516;10.478;2023-08-20T00:17:08;8.23;;;2.58;;
18649;SDS011;9454;53.516;10.478;2023-08-20T00:20:13;5.90;;;1.83;;
18649;SDS011;9454;53.516;10.478;2023-08-20T00:23:18;8.80;;;2.35;;
18649;SDS011;9454;53.516;10.478;2023-08-20T00:26:22;4.60;;;1.98;;
18649;SDS011;9454;53.516;10.478;2023-08-20T00:29:25;5.97;;;2.10;;
18649;SDS011;9454;53.516;10.478;2023-08-20T00:32:32;6.55;;;1.83;;
18649;SDS011;9454;53.516;10.478;2023-08-20T00:35:37;3.17;;;2.08;;
18649;SDS011;9454;53.516;10.478;2023-08-20T00:38:41;4.78;;;2.13;;
18649;SDS011;9454;53.516;10.478;2023-08-20T00:41:44;6.50;;;2.33;;
18649;SDS011;9454;53.516;10.478;2023-08-20T00:44:49;3.90;;;2.10;;
18649;SDS011;9454;53.516;10.478;2023-08-20T00:47:53;13.07;;;2.38;;
18649;SDS011;9454;53.516;10.478;2023-08-20T00:50:57;4.13;;;2.00;;
18649;SDS011;9454;53.516;10.478;2023-08-20T00:54:01;5.43;;;2.35;;
18649;SDS011;9454;53.516;10.478;2023-08-20T00:57:05;6.88;;;2.33;;
18649;SDS011;9454;53.516;10.478;2023-08-20T01:00:10;6.45;;;2.08;;
18649;SDS011;9454;53.516;10.478;2023-08-20T01:03:17;4.22;;;1.88;;
18649;SDS011;9454;53.516;10.478;2023-08-20T01:06:23;6.60;;;2.00;;
18649;SDS011;9454;53.516;10.478;2023-08-20T01:09:31;7.55;;;2.38;;
18649;SDS011;9454;53.516;10.478;2023-08-20T01:12:38;5.65;;;1.90;;
18649;SDS011;9454;53.516;10.478;2023-08-20T01:15:42;4.68;;;1.90;;
18649;SDS011;9454;53.516;10.478;2023-08-20T01:18:50;5.03;;;2.10;;
18649;SDS011;9454;53.516;10.478;2023-08-20T01:21:58;7.75;;;2.03;;
18649;SDS011;9454;53.516;10.478;2023-08-20T01:25:04;10.52;;;2.42;;
18649;SDS011;9454;53.516;10.478;2023-08-20T01:28:25;10.05;;;2.38;;
18649;SDS011;9454;53.516;10.478;2023-08-20T01:31:29;8.18;;;1.95;;
18649;SDS011;9454;53.516;10.478;2023-08-20T01:34:33;7.10;;;2.50;;
18649;SDS011;9454;53.516;10.478;2023-08-20T01:37:37;5.57;;;2.05;;
18649;SDS011;9454;53.516;10.478;2023-08-20T01:40:43;4.38;;;2.00;;
18649;SDS011;9454;53.516;10.478;2023-08-20T01:43:48;4.15;;;1.92;;
18649;SDS011;9454;53.516;10.478;2023-08-20T01:46:51;8.45;;;2.33;;
18649;SDS011;9454;53.516;10.478;2023-08-20T01:49:55;5.53;;;2.17;;
18649;SDS011;9454;53.516;10.478;2023-08-20T01:53:00;10.48;;;2.40;;
18649;SDS011;9454;53.516;10.478;2023-08-20T01:56:04;8.75;;;2.50;;
18649;SDS011;9454;53.516;10.478;2023-08-20T01:59:09;4.28;;;2.13;;
18649;SDS011;9454;53.516;10.478;2023-08-20T02:02:12;6.82;;;2.90;;
18649;SDS011;9454;53.516;10.478;2023-08-20T02:05:16;4.70;;;1.90;;
18649;SDS011;9454;53.516;10.478;2023-08-20T02:08:20;9.63;;;2.50;;
18649;SDS011;9454;53.516;10.478;2023-08-20T02:11:24;11.80;;;2.30;;
18649;SDS011;9454;53.516;10.478;2023-08-20T02:14:31;6.18;;;2.70;;
18649;SDS011;9454;53.516;10.478;2023-08-20T02:17:36;4.22;;;2.05;;
18649;SDS011;9454;53.516;10.478;2023-08-20T02:20:42;6.80;;;2.13;;
18649;SDS011;9454;53.516;10.478;2023-08-20T02:23:47;7.97;;;2.10;;
18649;SDS011;9454;53.516;10.478;2023-08-20T02:26:51;11.98;;;2.40;;
18649;SDS011;9454;53.516;10.478;2023-08-20T02:29:56;6.93;;;2.38;;
18649;SDS011;9454;53.516;10.478;2023-08-20T02:33:02;6.68;;;1.90;;
18649;SDS011;9454;53.516;10.478;2023-08-20T02:36:05;6.47;;;2.38;;
18649;SDS011;9454;53.516;10.478;2023-08-20T02:39:09;5.80;;;2.28;;
18649;SDS011;9454;53.516;10.478;2023-08-20T02:42:13;8.93;;;2.17;;
18649;SDS011;9454;53.516;10.478;2023-08-20T02:45:18;8.00;;;2.40;;
18649;SDS011;9454;53.516;10.478;2023-08-20T02:48:21;11.23;;;2.78;;
18649;SDS011;9454;53.516;10.478;2023-08-20T02:51:29;12.43;;;3.03;;
18649;SDS011;9454;53.516;10.478;2023-08-20T02:54:34;6.55;;;1.95;;
18649;SDS011;9454;53.516;10.478;2023-08-20T02:57:37;7.45;;;2.38;;
18649;SDS011;9454;53.516;10.478;2023-08-20T03:00:42;6.15;;;2.53;;
18649;SDS011;9454;53.516;10.478;2023-08-20T03:03:46;7.90;;;2.65;;
18649;SDS011;9454;53.516;10.478;2023-08-20T03:06:51;10.25;;;3.10;;
18649;SDS011;9454;53.516;10.478;2023-08-20T03:09:55;6.78;;;2.10;;
18649;SDS011;9454;53.516;10.478;2023-08-20T03:12:59;9.55;;;2.15;;
18649;SDS011;9454;53.516;10.478;2023-08-20T03:16:04;7.05;;;2.38;;
18649;SDS011;9454;53.516;10.478;2023-08-20T03:19:08;8.90;;;2.47;;
18649;SDS011;9454;53.516;10.478;2023-08-20T03:22:12;11.10;;;2.85;;
18649;SDS011;9454;53.516;10.478;2023-08-20T03:25:16;7.22;;;2.53;;
18649;SDS011;9454;53.516;10.478;2023-08-20T03:28:20;5.07;;;2.50;;
18649;SDS011;9454;53.516;10.478;2023-08-20T03:31:26;7.65;;;2.90;;
18649;SDS011;9454;53.516;10.478;2023-08-20T03:34:29;7.28;;;2.28;;
18649;SDS011;9454;53.516;10.478;2023-08-20T03:37:33;5.40;;;2.05;;
18649;SDS011;9454;53.516;10.478;2023-08-20T03:40:37;5.47;;;2.40;;
18649;SDS011;9454;53.516;10.478;2023-08-20T03:43:44;3.20;;;1.95;;
18649;SDS011;9454;53.516;10.478;2023-08-20T03:46:49;6.63;;;2.05;;
18649;SDS011;9454;53.516;10.478;2023-08-20T03:49:53;7.35;;;2.63;;
18649;SDS011;9454;53.516;10.478;2023-08-20T03:52:56;10.68;;;2.60;;
18649;SDS011;9454;53.516;10.478;2023-08-20T03:56:00;6.40;;;2.72;;
18649;SDS011;9454;53.516;10.478;2023-08-20T03:59:06;5.97;;;2.88;;
18649;SDS011;9454;53.516;10.478;2023-08-20T04:02:12;6.78;;;3.13;;
18649;SDS011;9454;53.516;10.478;2023-08-20T04:05:17;5.05;;;2.60;;
18649;SDS011;9454;53.516;10.478;2023-08-20T04:08:20;9.50;;;3.78;;
18649;SDS011;9454;53.516;10.478;2023-08-20T04:11:24;4.85;;;3.15;;
18649;SDS011;9454;53.516;10.478;2023-08-20T04:14:30;8.50;;;3.75;;
18649;SDS011;9454;53.516;10.478;2023-08-20T04:17:34;5.93;;;3.03;;
18649;SDS011;9454;53.516;10.478;2023-08-20T04:20:40;5.88;;;3.33;;
18649;SDS011;9454;53.516;10.478;2023-08-20T04:23:43;7.05;;;3.28;;
18649;SDS011;9454;53.516;10.478;2023-08-20T04:26:47;7.57;;;3.92;;
18649;SDS011;9454;53.516;10.478;2023-08-20T04:29:57;6.15;;;3.47;;
18649;SDS011;9454;53.516;10.478;2023-08-20T04:33:04;6.20;;;3.90;;
18649;SDS011;9454;53.516;10.478;2023-08-20T04:36:07;7.63;;;3.58;;
18649;SDS011;9454;53.516;10.478;2023-08-20T04:39:12;7.03;;;3.88;;
18649;SDS011;9454;53.516;10.478;2023-08-20T04:42:21;6.05;;;3.75;;
18649;SDS011;9454;53.516;10.478;2023-08-20T04:45:26;5.32;;;3.55;;
18649;SDS011;9454;53.516;10.478;2023-08-20T04:48:32;7.57;;;4.38;;
18649;SDS011;9454;53.516;10.478;2023-08-20T04:51:36;8.32;;;4.68;;
18649;SDS011;9454;53.516;10.478;2023-08-20T04:54:39;8.00;;;4.40;;
18649;SDS011;9454;53.516;10.478;2023-08-20T04:57:43;5.50;;;3.55;;
18649;SDS011;9454;53.516;10.478;2023-08-20T05:00:47;8.75;;;4.10;;
18649;SDS011;9454;53.516;10.478;2023-08-20T05:03:52;6.82;;;4.05;;
18649;SDS011;9454;53.516;10.478;2023-08-20T05:06:56;7.70;;;4.15;;
18649;SDS011;9454;53.516;10.478;2023-08-20T05:10:00;8.00;;;4.57;;
18649;SDS011;9454;53.516;10.478;2023-08-20T05:13:04;7.55;;;4.78;;
18649;SDS011;9454;53.516;10.478;2023-08-20T05:16:08;9.38;;;4.88;;
18649;SDS011;9454;53.516;10.478;2023-08-20T05:19:13;10.25;;;4.75;;
18649;SDS011;9454;53.516;10.478;2023-08-20T05:22:17;10.75;;;5.30;;
18649;SDS011;9454;53.516;10.478;2023-08-20T05:25:21;9.45;;;5.35;;
18649;SDS011;9454;53.516;10.478;2023-08-20T05:28:25;8.43;;;4.47;;
18649;SDS011;9454;53.516;10.478;2023-08-20T05:31:29;9.68;;;4.78;;
18649;SDS011;9454;53.516;10.478;2023-08-20T05:34:34;9.57;;;4.90;;
18649;SDS011;9454;53.516;10.478;2023-08-20T05:37:38;9.48;;;5.03;;
18649;SDS011;9454;53.516;10.478;2023-08-20T05:40:43;9.82;;;4.10;;
18649;SDS011;9454;53.516;10.478;2023-08-20T05:43:49;9.30;;;4.25;;
18649;SDS011;9454;53.516;10.478;2023-08-20T05:46:52;8.38;;;3.97;;
18649;SDS011;9454;53.516;10.478;2023-08-20T05:50:00;12.75;;;4.60;;
18649;SDS011;9454;53.516;10.478;2023-08-20T05:53:06;8.13;;;4.03;;
18649;SDS011;9454;53.516;10.478;2023-08-20T05:56:10;9.73;;;4.40;;
18649;SDS011;9454;53.516;10.478;2023-08-20T05:59:16;10.07;;;4.60;;
18649;SDS011;9454;53.516;10.478;2023-08-20T06:02:19;10.93;;;5.20;;
18649;SDS011;9454;53.516;10.478;2023-08-20T06:05:25;8.77;;;5.10;;
18649;SDS011;9454;53.516;10.478;2023-08-20T06:08:28;14.85;;;5.78;;
18649;SDS011;9454;53.516;10.478;2023-08-20T06:11:32;14.50;;;4.93;;
18649;SDS011;9454;53.516;10.478;2023-08-20T06:14:36;14.48;;;5.45;;
18649;SDS011;9454;53.516;10.478;2023-08-20T06:17:39;13.40;;;5.38;;
18649;SDS011;9454;53.516;10.478;2023-08-20T06:20:44;16.60;;;6.22;;
18649;SDS011;9454;53.516;10.478;2023-08-20T06:23:48;12.77;;;5.95;;
18649;SDS011;9454;53.516;10.478;2023-08-20T06:26:51;13.43;;;6.07;;
18649;SDS011;9454;53.516;10.478;2023-08-20T06:29:57;12.00;;;5.82;;
18649;SDS011;9454;53.516;10.478;2023-08-20T06:33:01;11.25;;;5.15;;
18649;SDS011;9454;53.516;10.478;2023-08-20T06:36:07;13.00;;;6.18;;
18649;SDS011;9454;53.516;10.478;2023-08-20T06:39:10;12.25;;;6.13;;
18649;SDS011;9454;53.516;10.478;2023-08-20T06:42:14;12.07;;;5.38;;
18649;SDS011;9454;53.516;10.478;2023-08-20T06:45:17;11.50;;;5.28;;
18649;SDS011;9454;53.516;10.478;2023-08-20T06:48:22;12.07;;;5.88;;
18649;SDS011;9454;53.516;10.478;2023-08-20T06:51:28;11.57;;;6.10;;
18649;SDS011;9454;53.516;10.478;2023-08-20T06:54:31;14.48;;;5.65;;
18649;SDS011;9454;53.516;10.478;2023-08-20T06:57:35;13.90;;;5.85;;
18649;SDS011;9454;53.516;10.478;2023-08-20T07:00:38;14.38;;;6.55;;
18649;SDS011;9454;53.516;10.478;2023-08-20T07:03:43;14.38;;;6.03;;
18649;SDS011;9454;53.516;10.478;2023-08-20T07:06:49;19.80;;;5.88;;
18649;SDS011;9454;53.516;10.478;2023-08-20T07:09:53;13.77;;;5.70;;
18649;SDS011;9454;53.516;10.478;2023-08-20T07:12:57;12.82;;;6.45;;
18649;SDS011;9454;53.516;10.478;2023-08-20T07:16:04;13.85;;;6.90;;
18649;SDS011;9454;53.516;10.478;2023-08-20T07:19:08;12.30;;;5.78;;
18649;SDS011;9454;53.516;10.478;2023-08-20T07:22:13;15.05;;;5.47;;
18649;SDS011;9454;53.516;10.478;2023-08-20T07:25:17;20.83;;;7.38;;
18649;SDS011;9454;53.516;10.478;2023-08-20T07:28:20;14.40;;;6.35;;
18649;SDS011;9454;53.516;10.478;2023-08-20T07:31:48;11.88;;;5.60;;
18649;SDS011;9454;53.516;10.478;2023-08-20T07:34:54;11.00;;;5.63;;
18649;SDS011;9454;53.516;10.478;2023-08-20T07:38:00;15.13;;;5.53;;
18649;SDS011;9454;53.516;10.478;2023-08-20T07:41:04;11.05;;;5.18;;
18649;SDS011;9454;53.516;10.478;2023-08-20T07:44:08;14.50;;;5.50;;
18649;SDS011;9454;53.516;10.478;2023-08-20T07:47:12;14.48;;;4.85;;
18649;SDS011;9454;53.516;10.478;2023-08-20T07:50:15;14.05;;;4.18;;
18649;SDS011;9454;53.516;10.478;2023-08-20T07:53:20;9.10;;;4.22;;
18649;SDS011;9454;53.516;10.478;2023-08-20T07:56:24;8.13;;;3.85;;
18649;SDS011;9454;53.516;10.478;2023-08-20T07:59:28;7.38;;;4.30;;
18649;SDS011;9454;53.516;10.478;2023-08-20T08:02:31;8.23;;;3.55;;
18649;SDS011;9454;53.516;10.478;2023-08-20T08:05:35;10.25;;;3.35;;
18649;SDS011;9454;53.516;10.478;2023-08-20T08:08:41;8.40;;;3.50;;
18649;SDS011;9454;53.516;10.478;2023-08-20T08:11:45;8.85;;;3.47;;
18649;SDS011;9454;53.516;10.478;2023-08-20T08:14:49;6.63;;;2.53;;
18649;SDS011;9454;53.516;10.478;2023-08-20T08:17:52;11.43;;;2.40;;
18649;SDS011;9454;53.516;10.478;2023-08-20T08:20:57;8.00;;;2.20;;
18649;SDS011;9454;53.516;10.478;2023-08-20T08:24:03;6.95;;;2.28;;
18649;SDS011;9454;53.516;10.478;2023-08-20T08:27:07;8.05;;;2.60;;
18649;SDS011;9454;53.516;10.478;2023-08-20T08:30:11;9.23;;;3.10;;
18649;SDS011;9454;53.516;10.478;2023-08-20T08:33:16;7.15;;;2.58;;
18649;SDS011;9454;53.516;10.478;2023-08-20T08:36:21;6.80;;;2.25;;
18649;SDS011;9454;53.516;10.478;2023-08-20T08:39:27;9.57;;;2.20;;
18649;SDS011;9454;53.516;10.478;2023-08-20T08:42:31;8.10;;;2.53;;
18649;SDS011;9454;53.516;10.478;2023-08-20T08:45:35;7.68;;;2.28;;
18649;SDS011;9454;53.516;10.478;2023-08-20T08:48:39;4.00;;;1.38;;
18649;SDS011;9454;53.516;10.478;2023-08-20T08:51:44;3.63;;;1.17;;
18649;SDS011;9454;53.516;10.478;2023-08-20T08:54:50;4.93;;;1.52;;
18649;SDS011;9454;53.516;10.478;2023-08-20T08:57:54;5.03;;;1.40;;
18649;SDS011;9454;53.516;10.478;2023-08-20T09:00:59;2.42;;;1.20;;
18649;SDS011;9454;53.516;10.478;2023-08-20T09:04:03;1.98;;;1.05;;
18649;SDS011;9454;53.516;10.478;2023-08-20T09:07:10;3.67;;;1.30;;
18649;SDS011;9454;53.516;10.478;2023-08-20T09:10:20;7.03;;;1.83;;
18649;SDS011;9454;53.516;10.478;2023-08-20T09:13:23;4.05;;;1.33;;
18649;SDS011;9454;53.516;10.478;2023-08-20T09:16:30;5.88;;;1.70;;
18649;SDS011;9454;53.516;10.478;2023-08-20T09:19:36;6.03;;;2.17;;
18649;SDS011;9454;53.516;10.478;2023-08-20T09:22:40;4.05;;;1.40;;
18649;SDS011;9454;53.516;10.478;2023-08-20T09:25:53;5.43;;;1.67;;
18649;SDS011;9454;53.516;10.478;2023-08-20T09:28:57;6.88;;;1.33;;
18649;SDS011;9454;53.516;10.478;2023-08-20T09:32:03;5.75;;;1.40;;
18649;SDS011;9454;53.516;10.478;2023-08-20T09:35:07;4.35;;;1.45;;
18649;SDS011;9454;53.516;10.478;2023-08-20T09:38:21;2.88;;;1.33;;
18649;SDS011;9454;53.516;10.478;2023-08-20T09:41:26;5.57;;;1.38;;
18649;SDS011;9454;53.516;10.478;2023-08-20T09:44:32;3.47;;;1.27;;
18649;SDS011;9454;53.516;10.478;2023-08-20T09:47:37;8.00;;;1.92;;
18649;SDS011;9454;53.516;10.478;2023-08-20T09:50:41;3.97;;;1.42;;
18649;SDS011;9454;53.516;10.478;2023-08-20T09:53:48;5.00;;;1.35;;
18649;SDS011;9454;53.516;10.478;2023-08-20T09:56:58;7.45;;;1.95;;
18649;SDS011;9454;53.516;10.478;2023-08-20T10:00:04;2.28;;;1.35;;
18649;SDS011;9454;53.516;10.478;2023-08-20T10:03:13;3.00;;;1.20;;
18649;SDS011;9454;53.516;10.478;2023-08-20T10:06:17;6.38;;;1.63;;
18649;SDS011;9454;53.516;10.478;2023-08-20T10:09:21;5.45;;;1.58;;
18649;SDS011;9454;53.516;10.478;2023-08-20T10:12:27;3.63;;;1.20;;
18649;SDS011;9454;53.516;10.478;2023-08-20T10:15:31;3.83;;;1.42;;
18649;SDS011;9454;53.516;10.478;2023-08-20T10:18:40;5.45;;;1.42;;
18649;SDS011;9454;53.516;10.478;2023-08-20T10:21:43;8.50;;;1.60;;
18649;SDS011;9454;53.516;10.478;2023-08-20T10:24:48;7.47;;;1.70;;
18649;SDS011;9454;53.516;10.478;2023-08-20T10:27:54;5.97;;;1.70;;
18649;SDS011;9454;53.516;10.478;2023-08-20T10:31:04;3.70;;;1.30;;
18649;SDS011;9454;53.516;10.478;2023-08-20T10:34:08;4.95;;;1.75;;
18649;SDS011;9454;53.516;10.478;2023-08-20T10:37:13;3.60;;;1.60;;
18649;SDS011;9454;53.516;10.478;2023-08-20T10:40:19;8.50;;;1.42;;
18649;SDS011;9454;53.516;10.478;2023-08-20T10:43:48;7.72;;;1.67;;
18649;SDS011;9454;53.516;10.478;2023-08-20T10:46:53;4.20;;;1.63;;
18649;SDS011;9454;53.516;10.478;2023-08-20T10:49:56;3.65;;;1.48;;
18649;SDS011;9454;53.516;10.478;2023-08-20T10:53:03;5.25;;;1.52;;
18649;SDS011;9454;53.516;10.478;2023-08-20T10:56:07;2.40;;;1.25;;
18649;SDS011;9454;53.516;10.478;2023-08-20T10:59:14;6.60;;;1.80;;
18649;SDS011;9454;53.516;10.478;2023-08-20T11:02:18;2.30;;;1.13;;
18649;SDS011;9454;53.516;10.478;2023-08-20T11:05:22;1.75;;;1.02;;
18649;SDS011;9454;53.516;10.478;2023-08-20T11:08:27;4.78;;;1.33;;
18649;SDS011;9454;53.516;10.478;2023-08-20T11:11:31;3.90;;;1.48;;
18649;SDS011;9454;53.516;10.478;2023-08-20T11:14:36;3.90;;;1.23;;
18649;SDS011;9454;53.516;10.478;2023-08-20T11:17:40;4.70;;;1.50;;
18649;SDS011;9454;53.516;10.478;2023-08-20T11:20:44;9.75;;;2.15;;
18649;SDS011;9454;53.516;10.478;2023-08-20T11:23:47;10.07;;;1.98;;
18649;SDS011;9454;53.516;10.478;2023-08-20T11:26:53;4.25;;;1.85;;
18649;SDS011;9454;53.516;10.478;2023-08-20T11:29:58;5.07;;;1.10;;
18649;SDS011;9454;53.516;10.478;2023-08-20T11:33:02;3.42;;;1.23;;
18649;SDS011;9454;53.516;10.478;2023-08-20T11:36:06;2.58;;;1.10;;
18649;SDS011;9454;53.516;10.478;2023-08-20T11:39:10;6.25;;;2.15;;
18649;SDS011;9454;53.516;10.478;2023-08-20T11:42:14;6.00;;;1.77;;
18649;SDS011;9454;53.516;10.478;2023-08-20T11:45:19;3.65;;;1.48;;
18649;SDS011;9454;53.516;10.478;2023-08-20T11:48:22;3.92;;;1.42;;
18649;SDS011;9454;53.516;10.478;2023-08-20T11:51:26;5.13;;;1.60;;
18649;SDS011;9454;53.516;10.478;2023-08-20T11:54:31;4.53;;;1.73;;
18649;SDS011;9454;53.516;10.478;2023-08-20T11:57:35;4.35;;;1.92;;
18649;SDS011;9454;53.516;10.478;2023-08-20T12:00:40;3.10;;;1.27;;
18649;SDS011;9454;53.516;10.478;2023-08-20T12:03:45;4.88;;;1.70;;
18649;SDS011;9454;53.516;10.478;2023-08-20T12:06:52;5.78;;;1.80;;
18649;SDS011;9454;53.516;10.478;2023-08-20T12:10:18;4.43;;;1.83;;
18649;SDS011;9454;53.516;10.478;2023-08-20T12:13:22;7.80;;;1.60;;
18649;SDS011;9454;53.516;10.478;2023-08-20T12:16:28;7.63;;;1.52;;
18649;SDS011;9454;53.516;10.478;2023-08-20T12:19:31;6.00;;;1.77;;
18649;SDS011;9454;53.516;10.478;2023-08-20T12:22:35;5.65;;;1.83;;
18649;SDS011;9454;53.516;10.478;2023-08-20T12:25:39;3.15;;;1.23;;
18649;SDS011;9454;53.516;10.478;2023-08-20T12:28:44;2.40;;;1.25;;
18649;SDS011;9454;53.516;10.478;2023-08-20T12:31:49;7.50;;;1.48;;
18649;SDS011;9454;53.516;10.478;2023-08-20T12:34:53;5.97;;;1.65;;
18649;SDS011;9454;53.516;10.478;2023-08-20T12:37:56;5.18;;;1.52;;
18649;SDS011;9454;53.516;10.478;2023-08-20T12:41:00;4.88;;;1.40;;
18649;SDS011;9454;53.516;10.478;2023-08-20T12:44:05;2.28;;;1.35;;
18649;SDS011;9454;53.516;10.478;2023-08-20T12:47:10;4.43;;;1.38;;
18649;SDS011;9454;53.516;10.478;2023-08-20T12:50:14;3.60;;;1.35;;
18649;SDS011;9454;53.516;10.478;2023-08-20T12:53:18;3.78;;;1.48;;
18649;SDS011;9454;53.516;10.478;2023-08-20T12:56:22;3.30;;;1.50;;
18649;SDS011;9454;53.516;10.478;2023-08-20T12:59:26;8.35;;;1.98;;
18649;SDS011;9454;53.516;10.478;2023-08-20T13:02:32;4.10;;;1.40;;
18649;SDS011;9454;53.516;10.478;2023-08-20T13:05:36;5.68;;;1.48;;
18649;SDS011;9454;53.516;10.478;2023-08-20T13:08:40;3.83;;;1.55;;
18649;SDS011;9454;53.516;10.478;2023-08-20T13:11:44;6.97;;;1.40;;
18649;SDS011;9454;53.516;10.478;2023-08-20T13:14:49;5.38;;;1.40;;
18649;SDS011;9454;53.516;10.478;2023-08-20T13:17:55;6.63;;;1.60;;
18649;SDS011;9454;53.516;10.478;2023-08-20T13:21:02;4.63;;;1.58;;
18649;SDS011;9454;53.516;10.478;2023-08-20T13:24:06;7.43;;;1.42;;
18649;SDS011;9454;53.516;10.478;2023-08-20T13:27:10;4.53;;;1.10;;
18649;SDS011;9454;53.516;10.478;2023-08-20T13:30:14;5.63;;;1.50;;
18649;SDS011;9454;53.516;10.478;2023-08-20T13:33:19;5.78;;;1.65;;
18649;SDS011;9454;53.516;10.478;2023-08-20T13:36:22;5.85;;;1.40;;
18649;SDS011;9454;53.516;10.478;2023-08-20T13:39:26;8.50;;;1.70;;
18649;SDS011;9454;53.516;10.478;2023-08-20T13:42:30;8.05;;;1.52;;
18649;SDS011;9454;53.516;10.478;2023-08-20T13:45:34;5.93;;;1.60;;
18649;SDS011;9454;53.516;10.478;2023-08-20T13:48:39;9.82;;;1.25;;
18649;SDS011;9454;53.516;10.478;2023-08-20T13:51:43;3.30;;;1.20;;
18649;SDS011;9454;53.516;10.478;2023-08-20T13:54:46;4.18;;;1.30;;
18649;SDS011;9454;53.516;10.478;2023-08-20T13:57:50;6.63;;;1.58;;
18649;SDS011;9454;53.516;10.478;2023-08-20T14:00:53;3.92;;;1.27;;
18649;SDS011;9454;53.516;10.478;2023-08-20T14:03:58;5.50;;;1.40;;
18649;SDS011;9454;53.516;10.478;2023-08-20T14:07:03;2.08;;;1.15;;
18649;SDS011;9454;53.516;10.478;2023-08-20T14:10:08;5.35;;;1.58;;
18649;SDS011;9454;53.516;10.478;2023-08-20T14:13:12;5.35;;;1.17;;
18649;SDS011;9454;53.516;10.478;2023-08-20T14:16:19;3.50;;;1.38;;
18649;SDS011;9454;53.516;10.478;2023-08-20T14:19:24;3.53;;;1.67;;
18649;SDS011;9454;53.516;10.478;2023-08-20T14:22:28;6.40;;;1.38;;
18649;SDS011;9454;53.516;10.478;2023-08-20T14:25:32;4.75;;;1.42;;
18649;SDS011;9454;53.516;10.478;2023-08-20T14:28:36;6.30;;;1.80;;
18649;SDS011;9454;53.516;10.478;2023-08-20T14:31:39;4.50;;;1.25;;
18649;SDS011;9454;53.516;10.478;2023-08-20T14:34:45;3.42;;;1.38;;
18649;SDS011;9454;53.516;10.478;2023-08-20T14:37:48;3.35;;;1.42;;
18649;SDS011;9454;53.516;10.478;2023-08-20T14:40:52;7.25;;;1.85;;
18649;SDS011;9454;53.516;10.478;2023-08-20T14:43:55;1.83;;;1.40;;
18649;SDS011;9454;53.516;10.478;2023-08-20T14:46:59;4.63;;;1.58;;
18649;SDS011;9454;53.516;10.478;2023-08-20T14:50:05;2.83;;;1.25;;
18649;SDS011;9454;53.516;10.478;2023-08-20T14:53:09;3.33;;;1.48;;
18649;SDS011;9454;53.516;10.478;2023-08-20T14:56:13;1.88;;;1.20;;
18649;SDS011;9454;53.516;10.478;2023-08-20T14:59:19;2.47;;;1.17;;
18649;SDS011;9454;53.516;10.478;2023-08-20T15:02:23;4.35;;;1.55;;
18649;SDS011;9454;53.516;10.478;2023-08-20T15:05:28;5.63;;;1.48;;
18649;SDS011;9454;53.516;10.478;2023-08-20T15:08:32;5.18;;;1.45;;
18649;SDS011;9454;53.516;10.478;2023-08-20T15:11:35;9.52;;;1.60;;
18649;SDS011;9454;53.516;10.478;2023-08-20T15:14:39;2.95;;;1.13;;
18649;SDS011;9454;53.516;10.478;2023-08-20T15:17:43;3.25;;;1.42;;
18649;SDS011;9454;53.516;10.478;2023-08-20T15:20:54;3.35;;;1.60;;
18649;SDS011;9454;53.516;10.478;2023-08-20T15:23:57;2.13;;;1.10;;
18649;SDS011;9454;53.516;10.478;2023-08-20T15:27:05;6.07;;;1.70;;
18649;SDS011;9454;53.516;10.478;2023-08-20T15:30:10;4.18;;;1.40;;
18649;SDS011;9454;53.516;10.478;2023-08-20T15:33:13;6.95;;;1.45;;
18649;SDS011;9454;53.516;10.478;2023-08-20T15:36:19;2.33;;;1.10;;
18649;SDS011;9454;53.516;10.478;2023-08-20T15:39:22;6.15;;;1.63;;
18649;SDS011;9454;53.516;10.478;2023-08-20T15:42:26;7.03;;;1.60;;
18649;SDS011;9454;53.516;10.478;2023-08-20T15:45:30;2.75;;;1.20;;
18649;SDS011;9454;53.516;10.478;2023-08-20T15:48:36;6.95;;;1.40;;
18649;SDS011;9454;53.516;10.478;2023-08-20T15:51:41;4.20;;;1.33;;
18649;SDS011;9454;53.516;10.478;2023-08-20T15:54:45;8.20;;;1.80;;
18649;SDS011;9454;53.516;10.478;2023-08-20T15:57:49;5.72;;;1.80;;
18649;SDS011;9454;53.516;10.478;2023-08-20T16:00:53;2.22;;;1.05;;
18649;SDS011;9454;53.516;10.478;2023-08-20T16:03:56;8.70;;;1.67;;
18649;SDS011;9454;53.516;10.478;2023-08-20T16:07:05;7.38;;;1.77;;
18649;SDS011;9454;53.516;10.478;2023-08-20T16:10:09;6.53;;;1.58;;
18649;SDS011;9454;53.516;10.478;2023-08-20T16:13:14;4.22;;;1.40;;
18649;SDS011;9454;53.516;10.478;2023-08-20T16:16:17;5.18;;;1.48;;
18649;SDS011;9454;53.516;10.478;2023-08-20T16:19:21;4.10;;;1.30;;
18649;SDS011;9454;53.516;10.478;2023-08-20T16:22:27;3.63;;;1.48;;
18649;SDS011;9454;53.516;10.478;2023-08-20T16:25:31;6.05;;;1.65;;
18649;SDS011;9454;53.516;10.478;2023-08-20T16:28:37;4.70;;;1.58;;
18649;SDS011;9454;53.516;10.478;2023-08-20T16:31:40;3.42;;;1.42;;
18649;SDS011;9454;53.516;10.478;2023-08-20T16:34:44;4.72;;;1.23;;
18649;SDS011;9454;53.516;10.478;2023-08-20T16:37:50;4.35;;;1.15;;
18649;SDS011;9454;53.516;10.478;2023-08-20T16:40:54;3.28;;;1.50;;
18649;SDS011;9454;53.516;10.478;2023-08-20T16:43:57;4.22;;;1.40;;
18649;SDS011;9454;53.516;10.478;2023-08-20T16:47:01;7.47;;;1.50;;
18649;SDS011;9454;53.516;10.478;2023-08-20T16:50:05;4.07;;;1.42;;
18649;SDS011;9454;53.516;10.478;2023-08-20T16:53:10;2.22;;;1.20;;
18649;SDS011;9454;53.516;10.478;2023-08-20T16:56:14;4.43;;;0.95;;
18649;SDS011;9454;53.516;10.478;2023-08-20T16:59:20;5.40;;;1.02;;
18649;SDS011;9454;53.516;10.478;2023-08-20T17:06:54;3.83;;;1.35;;
18649;SDS011;9454;53.516;10.478;2023-08-20T17:09:59;4.60;;;1.10;;
18649;SDS011;9454;53.516;10.478;2023-08-20T17:13:05;2.78;;;1.10;;
18649;SDS011;9454;53.516;10.478;2023-08-20T17:16:10;1.75;;;1.10;;
18649;SDS011;9454;53.516;10.478;2023-08-20T17:19:14;3.28;;;1.30;;
18649;SDS011;9454;53.516;10.478;2023-08-20T17:22:18;5.72;;;1.13;;
18649;SDS011;9454;53.516;10.478;2023-08-20T17:25:25;4.55;;;1.20;;
18649;SDS011;9454;53.516;10.478;2023-08-20T17:28:29;2.22;;;1.05;;
18649;SDS011;9454;53.516;10.478;2023-08-20T17:31:33;2.45;;;1.23;;
18649;SDS011;9454;53.516;10.478;2023-08-20T17:35:12;3.33;;;1.08;;
18649;SDS011;9454;53.516;10.478;2023-08-20T17:38:31;5.32;;;1.10;;
18649;SDS011;9454;53.516;10.478;2023-08-20T17:42:04;3.95;;;1.08;;
18649;SDS011;9454;53.516;10.478;2023-08-20T17:45:15;4.72;;;0.98;;
18649;SDS011;9454;53.516;10.478;2023-08-20T17:48:29;4.80;;;1.20;;
18649;SDS011;9454;53.516;10.478;2023-08-20T17:51:33;1.63;;;0.88;;
18649;SDS011;9454;53.516;10.478;2023-08-20T17:54:37;4.03;;;1.00;;
18649;SDS011;9454;53.516;10.478;2023-08-20T17:57:43;2.78;;;0.80;;
18649;SDS011;9454;53.516;10.478;2023-08-20T18:00:47;2.63;;;0.77;;
18649;SDS011;9454;53.516;10.478;2023-08-20T18:03:51;5.35;;;1.10;;
18649;SDS011;9454;53.516;10.478;2023-08-20T18:06:57;2.03;;;0.90;;
18649;SDS011;9454;53.516;10.478;2023-08-20T18:10:01;4.47;;;1.15;;
18649;SDS011;9454;53.516;10.478;2023-08-20T18:13:19;2.10;;;1.17;;
18649;SDS011;9454;53.516;10.478;2023-08-20T18:16:27;5.72;;;1.33;;
18649;SDS011;9454;53.516;10.478;2023-08-20T18:19:31;2.30;;;1.05;;
18649;SDS011;9454;53.516;10.478;2023-08-20T18:22:37;4.97;;;1.05;;
18649;SDS011;9454;53.516;10.478;2023-08-20T18:25:48;3.08;;;1.38;;
18649;SDS011;9454;53.516;10.478;2023-08-20T18:28:55;3.88;;;1.17;;
18649;SDS011;9454;53.516;10.478;2023-08-20T18:32:00;3.58;;;0.90;;
18649;SDS011;9454;53.516;10.478;2023-08-20T18:35:07;2.85;;;0.80;;
18649;SDS011;9454;53.516;10.478;2023-08-20T18:38:15;6.75;;;1.20;;